Cavalier, ND (58220)

3:42 PM CDT on August 29, 2014 (GMT -0500)
Cavalier | Change Station
CLOSE
Current Station
Airport
Location: Cavalier,
Elevation: 892 ft
Nearby Weather Stations

Elev 892 ft 48.78 °N, 97.63 °W | Updated 7 minutes ago

Overcast
Overcast
63 °F
Feels Like 63 °F
N
14
Wind Variable Wind from North
Gusts 21 mph

Today
High -- | Low -- °F
--% Chance of Precip.
Yesterday
High -- | Low -- °F
Precip. -- in
6:43 AM 8:18 PM
Waxing Crescent, 16% visible
Pressure 29.84 in
Visibility 5.0 miles
Clouds Scattered Clouds 1500 ft
Mostly Cloudy 2400 ft
Overcast 2900 ft
Dew Point 59 °F
Humidity 88%
Rainfall 0.01 in
Snow Depth Not available.
UV 2 out of 12
Pollen 9.40 out of 12
Air Quality Not available.
Flu Activity Not available.
METAR K2C8 292035Z AUTO 35012G18KT 5SM BR SCT015 BKN024 OVC029 17/15 A2984 RMK AO2

More Conditions Fewer Conditions

Pressure 29.84 in
Visibility 5.0 miles
Clouds Scattered Clouds 1500 ft
Mostly Cloudy 2400 ft
Overcast 2900 ft
Dew Point 59 °F
Humidity 88%
Rainfall 0.01 in
Snow Depth Not available.
UV 2 out of 12
Pollen 9.40 out of 12
Air Quality Not available.
Flu Activity Not available.
METAR K2C8 292035Z AUTO 35012G18KT 5SM BR SCT015 BKN024 OVC029 17/15 A2984 RMK AO2

More Conditions Fewer Conditions

10-Day Weather Forecast

Almanac

Astronomy

Aug. 29, 2014 Rise Set
Actual Time 6:43 AM CDT 8:18 PM CDT
Civil Twilight 6:10 AM CDT 8:51 PM CDT
Nautical Twilight 5:29 AM CDT 9:31 PM CDT
Astronomical Twilight 4:45 AM CDT 10:15 PM CDT
Moon 10:56 AM CDT 9:52 PM CDT
Length of Visible Light 14h 41m
Length of Day
13h 35m
Tomorrow will be 3m 26s shorter.
Waxing Crescent, 16% of the Moon is Illuminated
Today
Waxing Crescent
Sep 2
First Quarter
Sep 8
Full
Sep 15
Last Quarter
Sep 24
New

Today's Extremes

State Highs State Lows

Community

WunderPhotos

Upload Photos

1,748,345 photos uploaded!

Nearby

Snow Depth

Station Depth Elevation
No new snow has been reported.

Earthquake Activity

City Distance Mag. Time & Date
No recent earthquake activity has been reported nearby.
Minimum magnitude displayed is 2.5.

Coastal Water Temperatures

Place Temperature
No Stations Reporting

Nearby Weather Stations